createdAt,value
2023-03-31T00:00:30.767Z,9.88
2023-03-31T00:01:02.385Z,9.88
2023-03-31T00:01:33.804Z,9.88
2023-03-31T00:02:06.798Z,9.88
2023-03-31T00:02:38.651Z,9.88
2023-03-31T00:03:10.608Z,9.88
2023-03-31T00:03:34.086Z,9.88
2023-03-31T00:03:55.975Z,9.77
2023-03-31T00:04:30.602Z,9.77
2023-03-31T00:05:02.725Z,9.77
2023-03-31T00:05:34.523Z,9.77
2023-03-31T00:06:06.855Z,9.77
2023-03-31T00:06:38.722Z,9.77
2023-03-31T00:07:11.029Z,9.77
2023-03-31T00:07:34.266Z,9.72
2023-03-31T00:07:59.031Z,9.72
2023-03-31T00:08:30.940Z,9.72
2023-03-31T00:09:02.589Z,9.72
2023-03-31T00:09:34.443Z,9.72
2023-03-31T00:10:17.097Z,9.61
2023-03-31T00:10:38.748Z,9.61
2023-03-31T00:11:10.937Z,9.61
2023-03-31T00:11:33.891Z,9.61
2023-03-31T00:11:56.017Z,9.61
2023-03-31T00:12:30.722Z,9.61
2023-03-31T00:13:02.402Z,9.61
2023-03-31T00:13:34.615Z,9.61
2023-03-31T00:14:06.658Z,9.61
2023-03-31T00:14:38.580Z,9.61
2023-03-31T00:15:10.974Z,9.61
2023-03-31T00:15:33.220Z,9.61
2023-03-31T00:15:55.544Z,9.61
2023-03-31T00:16:30.625Z,9.61
2023-03-31T00:17:02.793Z,9.61
2023-03-31T00:17:34.633Z,9.50
2023-03-31T00:18:06.537Z,9.50
2023-03-31T00:18:38.536Z,9.50
2023-03-31T00:19:10.593Z,9.50
2023-03-31T00:19:33.396Z,9.50
2023-03-31T00:19:56.026Z,9.61
2023-03-31T00:20:30.400Z,9.61
2023-03-31T00:21:02.623Z,9.61
2023-03-31T00:21:34.648Z,9.61
2023-03-31T00:22:06.565Z,9.72
2023-03-31T00:22:38.451Z,9.72
2023-03-31T00:23:11.012Z,9.72
2023-03-31T00:23:33.249Z,9.72
2023-03-31T00:23:55.538Z,9.72
2023-03-31T00:24:30.647Z,9.72
2023-03-31T00:25:02.492Z,9.72
2023-03-31T00:25:34.811Z,9.72
2023-03-31T00:26:06.970Z,9.72
2023-03-31T00:26:38.808Z,9.72
2023-03-31T00:27:10.548Z,9.72
2023-03-31T00:27:34.476Z,9.72
2023-03-31T00:27:56.625Z,9.72
2023-03-31T00:28:30.471Z,9.72
2023-03-31T00:29:02.398Z,9.72
2023-03-31T00:29:34.556Z,9.77
2023-03-31T00:30:06.558Z,9.77
2023-03-31T00:30:38.513Z,9.77
2023-03-31T00:31:10.640Z,9.77
2023-03-31T00:31:33.491Z,9.77
2023-03-31T00:31:55.871Z,9.77
2023-03-31T00:32:30.480Z,9.88
2023-03-31T00:33:02.466Z,9.88
2023-03-31T00:33:34.566Z,9.88
2023-03-31T00:34:06.620Z,9.88
2023-03-31T00:34:38.482Z,9.88
2023-03-31T00:35:10.453Z,10.00
2023-03-31T00:35:33.800Z,10.00
2023-03-31T00:35:56.716Z,10.00
2023-03-31T00:36:31.253Z,10.00
2023-03-31T00:37:02.592Z,10.00
2023-03-31T00:37:34.369Z,10.00
2023-03-31T00:38:06.695Z,10.00
2023-03-31T00:38:38.451Z,10.00
2023-03-31T00:39:10.444Z,10.00
2023-03-31T00:39:33.079Z,10.00
2023-03-31T00:39:55.454Z,10.00
2023-03-31T00:40:30.501Z,10.00
2023-03-31T00:41:02.639Z,10.00
2023-03-31T00:41:34.407Z,10.00
2023-03-31T00:42:06.519Z,10.00
2023-03-31T00:42:38.645Z,10.00
2023-03-31T00:43:10.685Z,10.00
2023-03-31T00:43:34.166Z,10.00
2023-03-31T00:43:56.550Z,10.00
2023-03-31T00:44:30.549Z,10.00
2023-03-31T00:45:05.034Z,10.00
2023-03-31T00:45:34.649Z,10.00
2023-03-31T00:46:07.177Z,10.00
2023-03-31T00:46:38.588Z,10.00
2023-03-31T00:47:10.480Z,10.00
2023-03-31T00:47:33.342Z,10.00
2023-03-31T00:47:55.752Z,10.00
2023-03-31T00:48:30.568Z,10.00
2023-03-31T00:49:03.084Z,10.00
2023-03-31T00:49:34.811Z,10.00
2023-03-31T00:50:06.620Z,10.00
2023-03-31T00:50:38.551Z,10.00
2023-03-31T00:51:10.623Z,10.00
2023-03-31T00:51:33.271Z,10.00
2023-03-31T00:51:55.635Z,10.00
2023-03-31T00:52:30.483Z,10.00
2023-03-31T00:53:02.416Z,10.00
2023-03-31T00:53:34.373Z,9.88
2023-03-31T00:54:06.690Z,9.88
2023-03-31T00:54:38.523Z,9.88
2023-03-31T00:55:10.500Z,9.88
2023-03-31T00:55:33.564Z,9.88
2023-03-31T00:55:57.451Z,9.88
2023-03-31T00:56:30.963Z,9.88
2023-03-31T00:57:02.597Z,9.88
2023-03-31T00:57:34.660Z,9.88
2023-03-31T00:58:06.579Z,9.88
2023-03-31T00:58:38.747Z,9.88
2023-03-31T00:59:11.130Z,9.88
2023-03-31T00:59:34.134Z,9.88
2023-03-31T00:59:56.481Z,9.88
2023-03-31T01:00:26.058Z,9.88
2023-03-31T01:00:48.857Z,9.77
2023-03-31T01:01:18.334Z,9.77
2023-03-31T01:01:41.350Z,9.77
2023-03-31T01:02:03.592Z,9.77
2023-03-31T01:02:34.812Z,9.77
2023-03-31T01:03:10.584Z,9.77
2023-03-31T01:03:33.645Z,9.77
2023-03-31T01:03:55.763Z,9.77
2023-03-31T01:04:30.471Z,9.77
2023-03-31T01:05:02.763Z,9.77
2023-03-31T01:05:34.497Z,9.77
2023-03-31T01:06:06.633Z,9.77
2023-03-31T01:06:38.556Z,9.77
2023-03-31T01:07:10.500Z,9.77
2023-03-31T01:07:33.669Z,9.77
2023-03-31T01:07:55.773Z,9.77
2023-03-31T01:08:30.366Z,9.77
2023-03-31T01:09:02.570Z,9.77
2023-03-31T01:09:34.416Z,9.77
2023-03-31T01:10:06.491Z,9.77
2023-03-31T01:10:38.445Z,9.77
2023-03-31T01:11:10.727Z,9.77
2023-03-31T01:11:33.665Z,9.77
2023-03-31T01:11:56.100Z,9.77
2023-03-31T01:12:30.375Z,9.77
2023-03-31T01:13:02.460Z,9.77
2023-03-31T01:13:34.822Z,9.77
2023-03-31T01:14:06.452Z,9.77
2023-03-31T01:14:38.492Z,9.77
2023-03-31T01:15:10.651Z,9.72
2023-03-31T01:15:33.163Z,9.72
2023-03-31T01:15:55.844Z,9.72
2023-03-31T01:16:30.460Z,9.77
2023-03-31T01:17:02.836Z,9.77
2023-03-31T01:17:34.646Z,9.77
2023-03-31T01:18:06.587Z,9.77
2023-03-31T01:18:38.579Z,9.72
2023-03-31T01:19:10.333Z,9.72
2023-03-31T01:19:33.125Z,9.72
2023-03-31T01:19:55.589Z,9.72
2023-03-31T01:20:30.419Z,9.72
2023-03-31T01:21:02.516Z,9.72
2023-03-31T01:21:34.588Z,9.72
2023-03-31T01:22:06.368Z,9.72
2023-03-31T01:22:38.547Z,9.72
2023-03-31T01:23:11.065Z,9.72
2023-03-31T01:23:34.147Z,9.72
2023-03-31T01:23:56.455Z,9.72
2023-03-31T01:24:30.447Z,9.61
2023-03-31T01:25:02.576Z,9.61
2023-03-31T01:25:34.474Z,9.61
2023-03-31T01:26:06.652Z,9.61
2023-03-31T01:26:38.586Z,9.61
2023-03-31T01:27:10.448Z,9.61
2023-03-31T01:27:33.501Z,9.61
2023-03-31T01:27:55.544Z,9.61
2023-03-31T01:28:30.518Z,9.61
2023-03-31T01:29:02.590Z,9.61
2023-03-31T01:29:34.521Z,9.61
2023-03-31T01:30:07.275Z,9.61
2023-03-31T01:30:38.655Z,9.61
2023-03-31T01:31:10.502Z,9.61
2023-03-31T01:31:33.339Z,9.61
2023-03-31T01:31:55.971Z,9.61
2023-03-31T01:32:30.426Z,9.61
2023-03-31T01:33:02.581Z,9.61
2023-03-31T01:33:34.549Z,9.72
2023-03-31T01:34:06.318Z,9.72
2023-03-31T01:34:38.560Z,9.72
2023-03-31T01:35:10.277Z,9.72
2023-03-31T01:35:33.170Z,9.72
2023-03-31T01:35:55.522Z,9.72
2023-03-31T01:36:30.433Z,9.72
2023-03-31T01:37:02.441Z,9.72
2023-03-31T01:37:34.355Z,9.72
2023-03-31T01:38:06.463Z,9.72
2023-03-31T01:38:38.483Z,9.72
2023-03-31T01:39:10.458Z,9.72
2023-03-31T01:39:33.206Z,9.72
2023-03-31T01:39:55.459Z,9.72
2023-03-31T01:40:30.602Z,9.72
2023-03-31T01:41:02.619Z,9.72
2023-03-31T01:41:34.446Z,9.72
2023-03-31T01:42:06.463Z,9.77
2023-03-31T01:42:38.474Z,9.77
2023-03-31T01:43:10.448Z,9.77
2023-03-31T01:43:33.368Z,9.77
2023-03-31T01:43:55.885Z,9.77
2023-03-31T01:44:31.138Z,9.77
2023-03-31T01:45:04.033Z,9.77
2023-03-31T01:45:34.337Z,9.77
2023-03-31T01:46:07.034Z,9.77
2023-03-31T01:46:38.553Z,9.77
2023-03-31T01:47:10.453Z,9.77
2023-03-31T01:47:33.184Z,9.77
2023-03-31T01:47:56.722Z,9.77
2023-03-31T01:48:30.681Z,9.77
2023-03-31T01:49:02.602Z,9.77
2023-03-31T01:49:34.692Z,9.77
2023-03-31T01:50:07.904Z,9.77
2023-03-31T01:50:38.562Z,9.77
2023-03-31T01:51:10.383Z,9.77
2023-03-31T01:51:34.133Z,9.77
2023-03-31T01:51:59.255Z,9.77
2023-03-31T01:52:31.085Z,9.77
2023-03-31T01:53:02.538Z,9.72
2023-03-31T01:53:34.723Z,9.72
2023-03-31T01:54:06.432Z,9.72
2023-03-31T01:54:38.543Z,9.72
2023-03-31T01:55:10.685Z,9.72
2023-03-31T01:55:34.727Z,9.72
2023-03-31T01:55:57.460Z,9.72
2023-03-31T01:56:30.290Z,9.72
2023-03-31T01:57:03.030Z,9.72
2023-03-31T01:57:34.392Z,9.72
2023-03-31T01:58:06.529Z,9.72
2023-03-31T01:58:38.745Z,9.72
2023-03-31T01:59:10.667Z,9.72
2023-03-31T01:59:33.430Z,9.72
2023-03-31T01:59:58.092Z,9.72
2023-03-31T02:00:30.509Z,9.72
2023-03-31T02:01:02.399Z,9.72
2023-03-31T02:01:37.297Z,9.77
2023-03-31T02:02:06.765Z,9.77
2023-03-31T02:02:44.182Z,9.77
2023-03-31T02:03:16.015Z,9.77
2023-03-31T02:03:35.652Z,9.77
2023-03-31T02:03:59.254Z,9.77
2023-03-31T02:04:30.681Z,9.77
2023-03-31T02:05:02.562Z,9.77
2023-03-31T02:05:34.680Z,9.88
2023-03-31T02:06:06.562Z,9.88
2023-03-31T02:06:39.010Z,9.88
2023-03-31T02:07:10.354Z,9.88
2023-03-31T02:07:33.102Z,9.88
2023-03-31T02:07:55.394Z,9.88
2023-03-31T02:08:30.547Z,9.88
2023-03-31T02:09:02.572Z,9.88
2023-03-31T02:09:34.342Z,9.88
2023-03-31T02:10:06.292Z,9.88
2023-03-31T02:10:38.542Z,9.88
2023-03-31T02:11:10.325Z,9.88
2023-03-31T02:11:33.039Z,9.88
2023-03-31T02:11:55.491Z,9.88
2023-03-31T02:12:30.489Z,9.88
2023-03-31T02:13:02.444Z,10.00
2023-03-31T02:13:34.540Z,10.00
2023-03-31T02:14:07.068Z,10.00
2023-03-31T02:14:38.511Z,10.00
2023-03-31T02:15:10.575Z,10.00
2023-03-31T02:15:33.873Z,10.00
2023-03-31T02:15:56.618Z,10.00
2023-03-31T02:16:30.400Z,10.11
2023-03-31T02:17:02.399Z,10.11
2023-03-31T02:17:34.296Z,10.11
2023-03-31T02:18:06.509Z,10.11
2023-03-31T02:18:38.547Z,10.11
2023-03-31T02:19:10.426Z,10.11
2023-03-31T02:19:33.182Z,10.11
2023-03-31T02:19:55.480Z,10.11
2023-03-31T02:20:30.321Z,10.11
2023-03-31T02:21:02.440Z,10.22
2023-03-31T02:21:34.441Z,10.22
2023-03-31T02:22:06.297Z,10.22
2023-03-31T02:22:38.800Z,10.22
2023-03-31T02:23:10.410Z,10.22
2023-03-31T02:23:33.562Z,10.22
2023-03-31T02:23:55.563Z,10.22
2023-03-31T02:24:30.587Z,10.22
2023-03-31T02:25:02.809Z,10.22
2023-03-31T02:25:34.566Z,10.22
2023-03-31T02:26:06.602Z,10.22
2023-03-31T02:26:38.751Z,10.22
2023-03-31T02:27:10.452Z,10.22
2023-03-31T02:27:33.479Z,10.22
2023-03-31T02:27:55.826Z,10.22
2023-03-31T02:28:30.352Z,10.22
2023-03-31T02:29:02.694Z,10.27
2023-03-31T02:29:34.275Z,10.27
2023-03-31T02:30:06.757Z,10.27
2023-03-31T02:30:38.380Z,10.27
2023-03-31T02:31:10.416Z,10.27
2023-03-31T02:31:33.331Z,10.27
2023-03-31T02:31:55.829Z,10.27
2023-03-31T02:32:30.269Z,10.27
2023-03-31T02:33:03.294Z,10.27
2023-03-31T02:33:34.642Z,10.27
2023-03-31T02:34:06.430Z,10.27
2023-03-31T02:34:38.426Z,10.27
2023-03-31T02:35:10.361Z,10.27
2023-03-31T02:35:33.162Z,10.27
2023-03-31T02:35:55.575Z,10.27
2023-03-31T02:36:30.529Z,10.38
2023-03-31T02:37:04.758Z,10.38
2023-03-31T02:37:34.828Z,10.38
2023-03-31T02:38:07.030Z,10.38
2023-03-31T02:38:38.405Z,10.38
2023-03-31T02:39:10.461Z,10.38
2023-03-31T02:39:34.970Z,10.38
2023-03-31T02:39:57.010Z,10.38
2023-03-31T02:40:30.663Z,10.38
2023-03-31T02:41:04.734Z,10.38
2023-03-31T02:41:34.516Z,10.50
2023-03-31T02:42:06.919Z,10.50
2023-03-31T02:42:38.588Z,10.50
2023-03-31T02:43:10.256Z,10.50
2023-03-31T02:43:33.048Z,10.50
2023-03-31T02:43:55.621Z,10.50
2023-03-31T02:44:30.502Z,10.50
2023-03-31T02:45:02.813Z,10.50
2023-03-31T02:45:34.537Z,10.50
2023-03-31T02:46:06.624Z,10.50
2023-03-31T02:46:38.479Z,10.50
2023-03-31T02:47:10.466Z,10.50
2023-03-31T02:47:33.581Z,10.50
2023-03-31T02:47:56.066Z,10.38
2023-03-31T02:48:30.624Z,10.38
2023-03-31T02:49:02.781Z,10.38
2023-03-31T02:49:34.750Z,10.38
2023-03-31T02:50:12.091Z,10.38
2023-03-31T02:50:38.494Z,10.38
2023-03-31T02:51:10.737Z,10.38
2023-03-31T02:51:33.367Z,10.38
2023-03-31T02:51:55.919Z,10.38
2023-03-31T02:52:31.964Z,10.38
2023-03-31T02:53:02.297Z,10.38
2023-03-31T02:53:34.365Z,10.38
2023-03-31T02:54:07.021Z,10.38
2023-03-31T02:54:38.764Z,10.27
2023-03-31T02:55:10.651Z,10.27
2023-03-31T02:55:35.787Z,10.27
2023-03-31T02:55:58.449Z,10.27
2023-03-31T02:56:30.703Z,10.22
2023-03-31T02:57:02.509Z,10.22
2023-03-31T02:57:34.622Z,10.22
2023-03-31T02:58:07.860Z,10.22
2023-03-31T02:58:38.743Z,10.22
2023-03-31T02:59:10.692Z,10.22
2023-03-31T02:59:33.071Z,10.22
2023-03-31T02:59:55.652Z,10.22
2023-03-31T03:00:39.753Z,10.22
2023-03-31T03:01:02.343Z,10.11
2023-03-31T03:01:35.096Z,10.11
2023-03-31T03:02:08.989Z,10.11
2023-03-31T03:02:34.487Z,10.11
2023-03-31T03:03:13.243Z,10.11
2023-03-31T03:03:35.220Z,10.11
2023-03-31T03:04:00.205Z,10.00
2023-03-31T03:04:31.377Z,10.00
2023-03-31T03:05:06.078Z,10.00
2023-03-31T03:05:35.226Z,10.00
2023-03-31T03:06:07.318Z,10.00
2023-03-31T03:06:41.621Z,10.00
2023-03-31T03:07:04.241Z,10.00
2023-03-31T03:07:39.249Z,10.00
2023-03-31T03:08:14.479Z,10.00
2023-03-31T03:08:37.009Z,10.00
2023-03-31T03:08:59.318Z,10.00
2023-03-31T03:09:34.388Z,9.88
2023-03-31T03:10:06.304Z,9.88
2023-03-31T03:10:38.817Z,9.88
2023-03-31T03:11:10.846Z,9.88
2023-03-31T03:11:33.150Z,9.88
2023-03-31T03:11:55.438Z,9.88
2023-03-31T03:12:30.440Z,9.88
2023-03-31T03:13:02.383Z,9.88
2023-03-31T03:13:34.338Z,9.88
2023-03-31T03:14:06.649Z,9.88
2023-03-31T03:14:38.503Z,9.88
2023-03-31T03:15:11.586Z,9.88
2023-03-31T03:15:33.554Z,9.88
2023-03-31T03:15:55.882Z,9.88
2023-03-31T03:16:30.504Z,9.88
2023-03-31T03:17:02.670Z,9.88
2023-03-31T03:17:34.304Z,9.88
2023-03-31T03:18:06.672Z,9.88
2023-03-31T03:18:38.531Z,9.88
2023-03-31T03:19:11.651Z,9.88
2023-03-31T03:19:33.218Z,9.88
2023-03-31T03:19:55.775Z,9.88
2023-03-31T03:20:30.388Z,9.88
2023-03-31T03:21:02.595Z,9.77
2023-03-31T03:21:34.557Z,9.77
2023-03-31T03:22:08.747Z,9.77
2023-03-31T03:22:38.654Z,9.77
2023-03-31T03:23:13.994Z,9.77
2023-03-31T03:23:33.327Z,9.77
2023-03-31T03:23:55.700Z,9.77
2023-03-31T03:24:30.661Z,9.77
2023-03-31T03:25:02.334Z,9.77
2023-03-31T03:25:34.338Z,9.77
2023-03-31T03:26:06.512Z,9.77
2023-03-31T03:26:38.755Z,9.77
2023-03-31T03:27:10.337Z,9.77
2023-03-31T03:27:33.709Z,9.77
2023-03-31T03:27:55.888Z,9.77
2023-03-31T03:28:30.503Z,9.77
2023-03-31T03:29:02.370Z,9.77
2023-03-31T03:29:34.275Z,9.77
2023-03-31T03:30:06.529Z,9.77
2023-03-31T03:30:38.484Z,9.77
2023-03-31T03:31:13.694Z,9.77
2023-03-31T03:31:34.598Z,9.77
2023-03-31T03:31:56.828Z,9.77
2023-03-31T03:32:30.474Z,9.72
2023-03-31T03:33:02.657Z,9.72
2023-03-31T03:33:34.295Z,9.72
2023-03-31T03:34:06.423Z,9.72
2023-03-31T03:34:38.526Z,9.72
2023-03-31T03:35:10.367Z,9.72
2023-03-31T03:35:33.266Z,9.72
2023-03-31T03:35:55.656Z,9.72
2023-03-31T03:36:30.491Z,9.72
2023-03-31T03:37:02.390Z,9.72
2023-03-31T03:37:34.244Z,9.72
2023-03-31T03:38:06.417Z,9.72
2023-03-31T03:38:38.421Z,9.72
2023-03-31T03:39:10.278Z,9.61
2023-03-31T03:39:33.587Z,9.61
2023-03-31T03:39:55.757Z,9.61
2023-03-31T03:40:30.472Z,9.61
2023-03-31T03:41:02.373Z,9.61
2023-03-31T03:41:34.493Z,9.61
2023-03-31T03:42:06.219Z,9.61
2023-03-31T03:42:38.656Z,9.61
2023-03-31T03:43:10.415Z,9.61
2023-03-31T03:43:33.259Z,9.61
2023-03-31T03:43:55.573Z,9.61
2023-03-31T03:44:30.503Z,9.61
2023-03-31T03:45:05.007Z,9.61
2023-03-31T03:45:34.251Z,9.61
2023-03-31T03:46:06.520Z,9.61
2023-03-31T03:46:38.806Z,9.61
2023-03-31T03:47:10.505Z,9.61
2023-03-31T03:47:33.088Z,9.61
2023-03-31T03:47:55.479Z,9.61
2023-03-31T03:48:30.622Z,9.61
2023-03-31T03:49:02.454Z,9.61
2023-03-31T03:49:34.274Z,9.61
2023-03-31T03:50:06.568Z,9.61
2023-03-31T03:50:39.824Z,9.61
2023-03-31T03:51:10.560Z,9.61
2023-03-31T03:51:33.601Z,9.61
2023-03-31T03:51:55.986Z,9.61
2023-03-31T03:52:30.647Z,9.61
2023-03-31T03:53:02.242Z,9.61
2023-03-31T03:53:34.576Z,9.61
2023-03-31T03:54:06.375Z,9.61
2023-03-31T03:54:41.370Z,9.61
2023-03-31T03:55:10.382Z,9.61
2023-03-31T03:55:42.903Z,9.61
2023-03-31T03:56:17.061Z,9.61
2023-03-31T03:56:37.193Z,9.61
2023-03-31T03:56:59.568Z,9.61
2023-03-31T03:57:34.282Z,9.61
2023-03-31T03:58:06.422Z,9.61
2023-03-31T03:58:38.608Z,9.50
2023-03-31T03:59:10.329Z,9.50
2023-03-31T03:59:33.472Z,9.50
2023-03-31T03:59:55.942Z,9.50
2023-03-31T04:00:30.397Z,9.61
2023-03-31T04:01:02.478Z,9.61
2023-03-31T04:01:34.401Z,9.61
2023-03-31T04:02:06.441Z,9.61
2023-03-31T04:02:38.732Z,9.50
2023-03-31T04:03:10.081Z,9.50
2023-03-31T04:03:47.563Z,9.50
2023-03-31T04:04:10.373Z,9.50
2023-03-31T04:04:39.697Z,9.50
2023-03-31T04:05:02.272Z,9.50
2023-03-31T04:05:34.337Z,9.50
2023-03-31T04:06:06.486Z,9.50
2023-03-31T04:06:38.581Z,9.50
2023-03-31T04:07:10.565Z,9.50
2023-03-31T04:07:33.552Z,9.50
2023-03-31T04:07:56.114Z,9.50
2023-03-31T04:08:30.349Z,9.50
2023-03-31T04:09:02.653Z,9.50
2023-03-31T04:09:34.327Z,9.50
2023-03-31T04:10:06.207Z,9.50
2023-03-31T04:10:38.348Z,9.50
2023-03-31T04:11:10.325Z,9.50
2023-03-31T04:11:33.059Z,9.50
2023-03-31T04:11:55.381Z,9.50
2023-03-31T04:12:30.365Z,9.50
2023-03-31T04:13:02.315Z,9.50
2023-03-31T04:13:34.327Z,9.50
2023-03-31T04:14:07.711Z,9.50
2023-03-31T04:14:38.549Z,9.50
2023-03-31T04:15:10.558Z,9.50
2023-03-31T04:15:34.162Z,9.50
2023-03-31T04:15:56.561Z,9.50
2023-03-31T04:16:30.485Z,9.50
2023-03-31T04:17:02.374Z,9.50
2023-03-31T04:17:34.511Z,9.50
2023-03-31T04:18:06.844Z,9.50
2023-03-31T04:18:38.171Z,9.50
2023-03-31T04:19:10.282Z,9.50
2023-03-31T04:19:33.030Z,9.50
2023-03-31T04:19:55.492Z,9.50
2023-03-31T04:20:30.414Z,9.50
2023-03-31T04:21:03.923Z,9.50
2023-03-31T04:21:34.233Z,9.50
2023-03-31T04:22:06.541Z,9.50
2023-03-31T04:22:38.498Z,9.38
2023-03-31T04:23:10.864Z,9.38
2023-03-31T04:24:16.264Z,9.38
2023-03-31T04:24:38.759Z,9.38
2023-03-31T04:25:01.638Z,9.38
2023-03-31T04:25:34.540Z,9.38
2023-03-31T04:26:07.436Z,9.38
2023-03-31T04:26:38.709Z,9.38
2023-03-31T04:27:10.886Z,9.38
2023-03-31T04:27:33.979Z,9.38
2023-03-31T04:27:56.168Z,9.38
2023-03-31T04:28:31.318Z,9.38
2023-03-31T04:29:02.697Z,9.38
2023-03-31T04:29:34.179Z,9.38
2023-03-31T04:30:06.663Z,9.38
2023-03-31T04:30:38.467Z,9.38
2023-03-31T04:31:10.174Z,9.38
2023-03-31T04:31:36.012Z,9.38
2023-03-31T04:31:55.922Z,9.38
2023-03-31T04:32:30.263Z,9.38
2023-03-31T04:33:02.541Z,9.38
2023-03-31T04:33:34.345Z,9.38
2023-03-31T04:34:06.544Z,9.38
2023-03-31T04:34:38.301Z,9.38
2023-03-31T04:35:10.468Z,9.38
2023-03-31T04:35:33.357Z,9.38
2023-03-31T04:35:55.796Z,9.38
2023-03-31T04:36:30.645Z,9.38
2023-03-31T04:37:02.233Z,9.38
2023-03-31T04:37:34.304Z,9.38
2023-03-31T04:38:06.442Z,9.38
2023-03-31T04:38:38.398Z,9.38
2023-03-31T04:39:10.377Z,9.38
2023-03-31T04:39:39.398Z,9.38
2023-03-31T04:40:14.428Z,9.38
2023-03-31T04:40:37.070Z,9.38
2023-03-31T04:40:59.959Z,9.38
2023-03-31T04:41:34.810Z,9.38
2023-03-31T04:42:07.072Z,9.38
2023-03-31T04:42:38.244Z,9.38
2023-03-31T04:43:10.287Z,9.38
2023-03-31T04:43:33.118Z,9.38
2023-03-31T04:43:55.843Z,9.38
2023-03-31T04:44:30.446Z,9.38
2023-03-31T04:45:02.320Z,9.38
2023-03-31T04:45:35.773Z,9.38
2023-03-31T04:46:07.343Z,9.38
2023-03-31T04:46:39.136Z,9.38
2023-03-31T04:47:12.007Z,9.38
2023-03-31T04:47:33.326Z,9.38
2023-03-31T04:47:56.368Z,9.50
2023-03-31T04:48:30.475Z,9.50
2023-03-31T04:49:02.685Z,9.50
2023-03-31T04:49:34.653Z,9.50
2023-03-31T04:50:06.798Z,9.50
2023-03-31T04:50:38.757Z,9.50
2023-03-31T04:51:10.515Z,9.50
2023-03-31T04:51:33.140Z,9.50
2023-03-31T04:51:55.588Z,9.50
2023-03-31T04:52:30.648Z,9.50
2023-03-31T04:53:03.757Z,9.61
2023-03-31T04:53:35.130Z,9.61
2023-03-31T04:54:06.552Z,9.61
2023-03-31T04:54:41.168Z,9.61
2023-03-31T04:55:10.444Z,9.61
2023-03-31T04:55:33.273Z,9.61
2023-03-31T04:55:56.064Z,9.61
2023-03-31T04:56:30.924Z,9.61
2023-03-31T04:57:03.349Z,9.61
2023-03-31T04:57:34.316Z,9.61
2023-03-31T04:58:06.774Z,9.61
2023-03-31T04:58:38.811Z,9.72
2023-03-31T04:59:11.012Z,9.72
2023-03-31T04:59:33.700Z,9.61
2023-03-31T04:59:56.099Z,9.61
2023-03-31T05:00:30.966Z,9.61
2023-03-31T05:01:02.438Z,9.61
2023-03-31T05:01:35.889Z,9.61
2023-03-31T05:02:06.637Z,9.72
2023-03-31T05:02:39.250Z,9.72
2023-03-31T05:03:10.087Z,9.72
2023-03-31T05:03:39.585Z,9.72
2023-03-31T05:04:16.700Z,9.72
2023-03-31T05:04:37.724Z,9.72
2023-03-31T05:05:00.654Z,9.72
2023-03-31T05:05:34.816Z,9.72
2023-03-31T05:06:07.569Z,9.72
2023-03-31T05:06:38.483Z,9.72
2023-03-31T05:07:10.927Z,9.72
2023-03-31T05:07:33.785Z,9.72
2023-03-31T05:07:56.342Z,9.72
2023-03-31T05:08:31.796Z,9.72
2023-03-31T05:09:04.412Z,9.72
2023-03-31T05:09:37.173Z,9.72
2023-03-31T05:10:06.468Z,9.72
2023-03-31T05:10:40.271Z,9.72
2023-03-31T05:11:10.415Z,9.72
2023-03-31T05:11:32.992Z,9.72
2023-03-31T05:11:55.419Z,9.72
2023-03-31T05:12:30.295Z,9.72
2023-03-31T05:13:03.782Z,9.72
2023-03-31T05:13:34.729Z,9.72
2023-03-31T05:14:07.779Z,9.72
2023-03-31T05:14:38.289Z,9.72
2023-03-31T05:15:28.813Z,9.72
2023-03-31T05:15:58.451Z,9.72
2023-03-31T05:16:30.940Z,9.72
2023-03-31T05:17:02.405Z,9.72
2023-03-31T05:17:34.634Z,9.72
2023-03-31T05:18:06.495Z,9.72
2023-03-31T05:18:38.784Z,9.72
2023-03-31T05:19:10.379Z,9.72
2023-03-31T05:19:33.583Z,9.72
2023-03-31T05:19:55.854Z,9.72
2023-03-31T05:20:30.426Z,9.72
2023-03-31T05:21:02.374Z,9.72
2023-03-31T05:21:34.322Z,9.72
2023-03-31T05:22:07.814Z,9.72
2023-03-31T05:22:38.648Z,9.72
2023-03-31T05:23:10.617Z,9.72
2023-03-31T05:23:35.214Z,9.72
2023-03-31T05:23:56.490Z,9.72
2023-03-31T05:24:30.805Z,9.72
2023-03-31T05:25:02.590Z,9.72
2023-03-31T05:25:34.356Z,9.72
2023-03-31T05:26:07.104Z,9.72
2023-03-31T05:26:38.462Z,9.72
2023-03-31T05:27:10.362Z,9.72
2023-03-31T05:27:47.610Z,9.72
2023-03-31T05:28:09.994Z,9.72
2023-03-31T05:28:39.481Z,9.72
2023-03-31T05:29:01.846Z,9.72
2023-03-31T05:29:34.401Z,9.72
2023-03-31T05:30:06.978Z,9.72
2023-03-31T05:30:38.660Z,9.72
2023-03-31T05:31:10.469Z,9.72
2023-03-31T05:31:33.144Z,9.72
2023-03-31T05:31:55.963Z,9.72
2023-03-31T05:32:32.180Z,9.72
2023-03-31T05:33:02.362Z,9.72
2023-03-31T05:33:34.527Z,9.72
2023-03-31T05:34:06.305Z,9.77
2023-03-31T05:34:38.503Z,9.77
2023-03-31T05:35:10.334Z,9.77
2023-03-31T05:35:33.513Z,9.77
2023-03-31T05:35:55.965Z,9.77
2023-03-31T05:36:33.406Z,9.77
2023-03-31T05:37:02.373Z,9.77
2023-03-31T05:37:34.322Z,9.77
2023-03-31T05:38:06.478Z,9.77
2023-03-31T05:38:38.282Z,9.77
2023-03-31T05:39:10.366Z,9.77
2023-03-31T05:39:34.107Z,9.77
2023-03-31T05:39:56.234Z,9.77
2023-03-31T05:40:33.162Z,9.88
2023-03-31T05:41:02.318Z,9.88
2023-03-31T05:41:34.267Z,9.88
2023-03-31T05:42:07.151Z,9.88
2023-03-31T05:42:38.464Z,9.88
2023-03-31T05:43:10.539Z,9.88
2023-03-31T05:43:34.399Z,9.88
2023-03-31T05:43:56.147Z,9.88
2023-03-31T05:44:30.381Z,9.88
2023-03-31T05:45:02.692Z,9.88
2023-03-31T05:45:34.568Z,9.88
2023-03-31T05:46:06.901Z,9.88
2023-03-31T05:46:38.393Z,9.77
2023-03-31T05:47:10.621Z,9.77
2023-03-31T05:47:35.046Z,9.77
2023-03-31T05:47:56.250Z,9.77
2023-03-31T05:48:30.655Z,9.77
2023-03-31T05:49:02.334Z,9.77
2023-03-31T05:49:35.215Z,9.77
2023-03-31T05:50:06.501Z,9.77
2023-03-31T05:50:38.417Z,9.88
2023-03-31T05:51:10.253Z,9.88
2023-03-31T05:51:39.456Z,9.88
2023-03-31T05:52:14.370Z,9.88
2023-03-31T05:52:37.031Z,9.88
2023-03-31T05:52:59.383Z,9.88
2023-03-31T05:53:36.797Z,9.77
2023-03-31T05:54:06.752Z,9.77
2023-03-31T05:54:41.268Z,9.77
2023-03-31T05:55:11.846Z,9.77
2023-03-31T05:55:36.344Z,9.77
2023-03-31T05:55:58.891Z,9.77
2023-03-31T05:56:30.425Z,9.77
2023-03-31T05:57:02.592Z,9.77
2023-03-31T05:57:37.044Z,9.77
2023-03-31T05:58:06.287Z,9.77
2023-03-31T05:58:38.505Z,9.77
2023-03-31T05:59:10.427Z,9.77
2023-03-31T05:59:39.711Z,9.77
2023-03-31T06:00:29.332Z,9.77
2023-03-31T06:00:37.901Z,9.77
2023-03-31T06:01:00.265Z,9.77
2023-03-31T06:01:37.377Z,9.77
2023-03-31T06:02:06.290Z,9.77
2023-03-31T06:02:39.036Z,9.77
2023-03-31T06:03:10.345Z,9.77
2023-03-31T06:03:39.460Z,9.77
2023-03-31T06:04:14.399Z,9.77
2023-03-31T06:04:38.368Z,9.77
2023-03-31T06:05:01.457Z,9.88
2023-03-31T06:05:34.428Z,9.88
2023-03-31T06:06:06.408Z,9.88
2023-03-31T06:06:38.729Z,9.88
2023-03-31T06:07:10.277Z,9.88
2023-03-31T06:07:47.531Z,9.88
2023-03-31T06:08:10.092Z,9.88
2023-03-31T06:08:39.949Z,9.88
2023-03-31T06:09:10.088Z,9.88
2023-03-31T06:09:34.612Z,9.88
2023-03-31T06:10:06.454Z,9.88
2023-03-31T06:10:38.861Z,9.88
2023-03-31T06:11:10.392Z,10.00
2023-03-31T06:11:33.643Z,10.00
2023-03-31T06:11:56.080Z,10.00
2023-03-31T06:12:30.516Z,10.00
2023-03-31T06:13:10.844Z,10.00
2023-03-31T06:13:34.401Z,10.00
2023-03-31T06:14:08.996Z,10.00
2023-03-31T06:14:43.274Z,10.00
2023-03-31T06:15:10.743Z,10.00
2023-03-31T06:15:33.204Z,9.88
2023-03-31T06:15:55.609Z,9.88
2023-03-31T06:16:30.421Z,9.88
2023-03-31T06:17:02.248Z,9.88
2023-03-31T06:17:35.636Z,9.88
2023-03-31T06:18:12.776Z,9.88
2023-03-31T06:18:40.677Z,9.88
2023-03-31T06:19:10.430Z,9.88
2023-03-31T06:19:33.452Z,9.88
2023-03-31T06:19:55.893Z,9.88
2023-03-31T06:20:30.435Z,9.88
2023-03-31T06:21:02.464Z,9.88
2023-03-31T06:21:34.296Z,9.88
2023-03-31T06:22:22.289Z,9.88
2023-03-31T06:22:45.563Z,10.00
2023-03-31T06:23:07.636Z,10.00
2023-03-31T06:23:41.817Z,10.00
2023-03-31T06:24:14.326Z,10.00
2023-03-31T06:24:37.704Z,10.00
2023-03-31T06:24:59.550Z,10.11
2023-03-31T06:25:47.663Z,10.11
2023-03-31T06:26:06.656Z,10.11
2023-03-31T06:26:38.543Z,10.11
2023-03-31T06:27:10.180Z,10.11
2023-03-31T06:27:42.990Z,10.11
2023-03-31T06:28:14.491Z,10.11
2023-03-31T06:28:36.971Z,10.11
2023-03-31T06:28:59.458Z,10.11
2023-03-31T06:29:34.165Z,10.11
2023-03-31T06:30:06.949Z,10.11
2023-03-31T06:30:38.176Z,10.11
2023-03-31T06:31:10.411Z,10.11
2023-03-31T06:31:34.277Z,10.11
2023-03-31T06:31:56.568Z,10.00
2023-03-31T06:32:30.267Z,10.00
2023-03-31T06:33:02.440Z,10.00
2023-03-31T06:33:35.089Z,10.00
2023-03-31T06:34:06.236Z,10.00
2023-03-31T06:34:38.328Z,10.00
2023-03-31T06:35:11.290Z,10.00
2023-03-31T06:35:33.153Z,10.00
2023-03-31T06:35:55.445Z,10.00
2023-03-31T06:36:30.383Z,10.00
2023-03-31T06:37:02.279Z,10.00